Time;durP1;ratioP1;P1;durP2;ratioP2;P2;SDS_P1;SDS_P2;PMS_P1;PMS_P2;Temp;Humidity;BMP_temperature;BMP_pressure;BME280_temperature;BME280_humidity;BME280_pressure;Samples;Min_cycle;Max_cycle;Signal;HPM_P1;HPM_P2
2023/09/23 00:02:14;;;;;;;20.17;7.43;;;614.80;2432.00;;;;;;5081539;28;20031;-72
2023/09/23 00:04:39;;;;;;;20.38;8.45;;;614.70;2432.00;;;;;;5075733;28;20032;-72
2023/09/23 00:07:05;;;;;;;17.40;7.78;;;614.70;2432.00;;;;;;5066030;28;20033;-71
2023/09/23 00:09:31;;;;;;;23.10;7.97;;;614.70;2432.00;;;;;;5065340;28;20064;-71
2023/09/23 00:11:58;;;;;;;17.17;6.88;;;614.70;2432.00;;;;;;5061038;28;20044;-72
2023/09/23 00:14:24;;;;;;;25.13;8.23;;;614.70;2432.00;;;;;;5070367;28;20020;-71
2023/09/23 00:16:50;;;;;;;25.15;8.40;;;614.70;2432.00;;;;;;5076239;28;20536;-71
2023/09/23 00:19:16;;;;;;;18.98;8.25;;;614.70;2432.00;;;;;;5071220;28;20110;-71
2023/09/23 00:21:41;;;;;;;25.05;7.88;;;614.70;2432.00;;;;;;5072528;28;20056;-71
2023/09/23 00:24:08;;;;;;;28.50;9.07;;;614.60;2432.00;;;;;;5068794;28;20025;-72
2023/09/23 00:26:35;;;;;;;27.00;8.65;;;614.60;2432.00;;;;;;5069042;28;20428;-71
2023/09/23 00:29:01;;;;;;;17.10;7.97;;;614.60;2432.00;;;;;;5069086;28;20029;-72
2023/09/23 00:31:29;;;;;;;25.17;8.65;;;614.60;2432.00;;;;;;5077215;28;20036;-71
2023/09/23 00:33:55;;;;;;;26.85;9.38;;;614.60;2432.00;;;;;;5066676;28;20029;-71
2023/09/23 00:36:22;;;;;;;21.10;8.57;;;614.50;2432.00;;;;;;5067923;28;20037;-72
2023/09/23 00:38:48;;;;;;;24.23;8.52;;;614.40;2432.00;;;;;;5072999;28;20028;-71
2023/09/23 00:41:13;;;;;;;23.88;8.98;;;614.40;2432.00;;;;;;5072259;28;20037;-71
2023/09/23 00:43:40;;;;;;;19.17;8.73;;;614.40;2432.00;;;;;;5076317;28;20024;-72
2023/09/23 00:46:07;;;;;;;22.83;8.15;;;614.40;2432.00;;;;;;5075173;28;20043;-71
2023/09/23 00:48:38;;;;;;;24.73;8.73;;;589.70;2432.00;;;;;;5074743;28;20017;-71
2023/09/23 00:51:06;;;;;;;22.38;8.48;;;589.70;2432.00;;;;;;5074871;28;20033;-71
2023/09/23 00:53:34;;;;;;;22.80;8.65;;;589.70;2432.00;;;;;;5075193;28;20028;-72
2023/09/23 00:56:00;;;;;;;25.98;7.97;;;589.70;2432.00;;;;;;5074799;28;20024;-72
2023/09/23 00:58:27;;;;;;;25.52;8.95;;;589.60;2432.00;;;;;;5074709;28;20020;-72
2023/09/23 01:00:54;;;;;;;28.50;8.57;;;589.70;2432.00;;;;;;5074685;28;20035;-72
2023/09/23 01:03:21;;;;;;;20.48;8.13;;;589.70;2432.00;;;;;;5074569;28;20013;-72
2023/09/23 01:05:49;;;;;;;23.90;8.48;;;589.70;2432.00;;;;;;5073564;28;20035;-72
2023/09/23 01:08:21;;;;;;;26.55;9.07;;;589.70;2432.00;;;;;;5074482;28;20040;-72
2023/09/23 01:10:48;;;;;;;26.42;8.60;;;589.70;2432.00;;;;;;5074363;28;20030;-71
2023/09/23 01:13:14;;;;;;;24.75;8.20;;;589.70;2432.00;;;;;;5074608;28;20031;-72
2023/09/23 01:15:41;;;;;;;23.48;9.07;;;589.70;2432.00;;;;;;5074460;28;20385;-72
2023/09/23 01:18:21;;;;;;;22.65;8.63;;;614.50;2432.00;;;;;;5074519;28;20028;-71
2023/09/23 01:20:51;;;;;;;26.88;8.38;;;614.50;2432.00;;;;;;5074373;28;20062;-71
2023/09/23 01:23:17;;;;;;;21.58;7.65;;;614.60;2432.00;;;;;;5074213;28;20028;-71
2023/09/23 01:25:43;;;;;;;20.52;6.50;;;614.60;2432.00;;;;;;5074421;28;20017;-72
2023/09/23 01:28:11;;;;;;;23.58;7.43;;;614.60;2432.00;;;;;;5074070;28;20112;-72
2023/09/23 01:30:46;;;;;;;29.10;8.50;;;614.60;2432.00;;;;;;5073980;28;20126;-72
2023/09/23 01:33:13;;;;;;;17.38;7.30;;;614.60;2432.00;;;;;;5073855;28;20470;-72
2023/09/23 01:35:40;;;;;;;24.65;8.20;;;614.60;2432.00;;;;;;5073975;28;20024;-72
2023/09/23 01:38:07;;;;;;;18.90;6.95;;;614.60;2432.00;;;;;;5073787;28;20416;-72
2023/09/23 01:40:35;;;;;;;20.95;7.93;;;614.60;2432.00;;;;;;5060654;28;20056;-71
2023/09/23 01:43:02;;;;;;;20.45;7.60;;;614.60;2432.00;;;;;;5073430;28;20496;-72
2023/09/23 01:45:28;;;;;;;22.90;8.45;;;614.60;2432.00;;;;;;5073693;28;20016;-72
2023/09/23 01:47:57;;;;;;;20.23;7.13;;;614.60;2432.00;;;;;;5073849;28;20066;-72
2023/09/23 01:50:27;;;;;;;30.40;9.57;;;614.60;2432.00;;;;;;5073716;28;20023;-71
2023/09/23 01:52:55;;;;;;;22.95;7.68;;;614.60;2432.00;;;;;;5073345;28;20036;-75
2023/09/23 01:55:21;;;;;;;17.65;7.63;;;614.70;2432.00;;;;;;5073759;28;20103;-71
2023/09/23 01:57:50;;;;;;;16.33;7.32;;;614.60;2432.00;;;;;;5073438;28;20127;-72
2023/09/23 02:00:25;;;;;;;23.88;8.27;;;614.50;2432.00;;;;;;5073737;28;20492;-71
2023/09/23 02:02:53;;;;;;;24.02;9.30;;;614.50;2432.00;;;;;;5073651;28;20012;-72
2023/09/23 02:05:20;;;;;;;32.08;8.23;;;614.50;2432.00;;;;;;5073224;28;20489;-71
2023/09/23 02:07:50;;;;;;;29.10;8.02;;;614.50;2432.00;;;;;;5073494;28;20473;-71
2023/09/23 02:10:17;;;;;;;26.98;6.78;;;614.50;2432.00;;;;;;5073311;28;20025;-72
2023/09/23 02:12:43;;;;;;;20.45;7.57;;;614.50;2432.00;;;;;;5073143;28;20037;-72
2023/09/23 02:15:15;;;;;;;21.70;8.32;;;614.50;2432.00;;;;;;5073381;28;20090;-72
2023/09/23 02:17:47;;;;;;;20.10;7.80;;;614.50;2432.00;;;;;;5073283;28;20047;-72
2023/09/23 02:20:18;;;;;;;23.75;7.78;;;614.50;2432.00;;;;;;5073081;28;20032;-71
2023/09/23 02:22:54;;;;;;;27.40;8.57;;;614.50;2432.00;;;;;;5073333;28;20031;-72
2023/09/23 02:25:24;;;;;;;22.85;7.95;;;614.40;2432.00;;;;;;5073147;28;20059;-72
2023/09/23 02:27:51;;;;;;;23.58;7.47;;;614.40;2432.00;;;;;;5073302;28;20473;-72
2023/09/23 02:30:17;;;;;;;18.40;7.38;;;614.40;2432.00;;;;;;5072746;28;20017;-73
2023/09/23 02:32:44;;;;;;;17.90;7.40;;;614.40;2432.00;;;;;;5073250;28;20036;-72
2023/09/23 02:35:12;;;;;;;21.25;8.13;;;614.40;2432.00;;;;;;5072682;28;20024;-72
2023/09/23 02:37:46;;;;;;;24.85;9.50;;;614.40;2432.00;;;;;;5073126;28;20119;-72
2023/09/23 02:40:14;;;;;;;18.45;8.30;;;614.40;2432.00;;;;;;5072545;28;20066;-71
2023/09/23 02:42:45;;;;;;;20.38;8.32;;;589.70;2432.00;;;;;;5073173;28;20496;-71
2023/09/23 02:45:13;;;;;;;18.25;8.00;;;614.40;2432.00;;;;;;5077654;28;20016;-73
2023/09/23 02:47:41;;;;;;;19.98;7.38;;;614.40;2432.00;;;;;;5081237;28;20469;-72
2023/09/23 02:50:17;;;;;;;27.02;8.82;;;614.40;2432.00;;;;;;5073058;28;20020;-75
2023/09/23 02:52:49;;;;;;;21.05;7.47;;;614.40;2432.00;;;;;;5073721;28;20033;-72
2023/09/23 02:55:16;;;;;;;19.73;8.05;;;614.50;2432.00;;;;;;5062334;28;20393;-72
2023/09/23 02:57:48;;;;;;;24.73;8.40;;;614.50;2432.00;;;;;;5073623;28;20027;-72
2023/09/23 03:00:29;;;;;;;19.67;7.75;;;589.70;2432.00;;;;;;5072866;28;20465;-72
2023/09/23 03:02:57;;;;;;;16.60;7.63;;;614.50;2432.00;;;;;;5072385;28;20016;-72
2023/09/23 03:05:28;;;;;;;28.92;8.27;;;614.50;2432.00;;;;;;5072849;28;20028;-71
2023/09/23 03:07:58;;;;;;;24.25;7.60;;;614.50;2432.00;;;;;;5072657;28;20021;-72
2023/09/23 03:10:39;;;;;;;18.95;7.53;;;614.60;2432.00;;;;;;5072751;28;20025;-71
2023/09/23 03:13:07;;;;;;;26.75;7.65;;;614.60;2432.00;;;;;;5072734;28;20032;-71
2023/09/23 03:16:07;;;;;;;21.60;7.75;;;614.60;2432.00;;;;;;5072571;28;20021;-71
2023/09/23 03:18:34;;;;;;;22.85;7.70;;;614.60;2432.00;;;;;;5072793;28;20433;-72
2023/09/23 03:21:10;;;;;;;18.50;7.28;;;614.60;2432.00;;;;;;5072425;28;20096;-71
2023/09/23 03:23:40;;;;;;;16.13;8.07;;;614.70;2432.00;;;;;;5072442;28;20032;-71
2023/09/23 03:26:08;;;;;;;17.75;7.70;;;614.70;2432.00;;;;;;5072529;28;20021;-72
2023/09/23 03:28:38;;;;;;;19.98;7.47;;;614.70;2432.00;;;;;;5072426;28;20401;-71
2023/09/23 03:31:08;;;;;;;19.52;7.40;;;614.70;2432.00;;;;;;5072588;28;20078;-72
2023/09/23 03:33:35;;;;;;;19.73;7.57;;;614.70;2432.00;;;;;;5072402;28;20365;-72
2023/09/23 03:36:01;;;;;;;19.33;7.80;;;614.80;2432.00;;;;;;5072428;28;20027;-72
2023/09/23 03:38:32;;;;;;;18.98;7.70;;;614.80;2432.00;;;;;;5072145;28;21342;-71
2023/09/23 03:40:59;;;;;;;15.75;7.28;;;614.90;2432.00;;;;;;5071096;28;20056;-72
2023/09/23 03:43:25;;;;;;;26.35;8.77;;;615.10;2432.00;;;;;;5072451;28;20012;-72
2023/09/23 03:45:52;;;;;;;19.52;8.30;;;615.10;2432.00;;;;;;5072502;28;20029;-72
2023/09/23 03:48:19;;;;;;;20.77;7.97;;;615.10;2432.00;;;;;;5071111;28;20409;-73
2023/09/23 03:50:49;;;;;;;24.70;8.15;;;615.10;2432.00;;;;;;5072308;28;20025;-71
2023/09/23 03:53:16;;;;;;;21.17;8.40;;;615.10;2432.00;;;;;;5072112;28;20070;-72
2023/09/23 03:55:42;;;;;;;21.73;8.48;;;614.90;2432.00;;;;;;5072441;28;20416;-72
2023/09/23 03:58:08;;;;;;;18.98;8.23;;;614.90;2432.00;;;;;;5072154;28;20032;-72
2023/09/23 04:00:34;;;;;;;20.95;8.43;;;614.80;2432.00;;;;;;5072408;28;20526;-72
2023/09/23 04:03:00;;;;;;;19.45;8.27;;;614.80;2432.00;;;;;;5072063;28;20027;-72
2023/09/23 04:05:28;;;;;;;18.70;7.20;;;614.60;2432.00;;;;;;5072139;28;20020;-72
2023/09/23 04:07:53;;;;;;;18.58;7.93;;;614.50;2432.00;;;;;;5075027;28;20024;-72
2023/09/23 04:10:23;;;;;;;20.58;8.30;;;614.50;2432.00;;;;;;5074420;28;20032;-71
2023/09/23 04:12:54;;;;;;;19.73;7.78;;;614.40;2432.00;;;;;;5066392;28;20068;-72
2023/09/23 04:15:21;;;;;;;20.05;8.27;;;614.40;2432.00;;;;;;5072304;28;20524;-72
2023/09/23 04:17:47;;;;;;;20.17;8.43;;;589.70;2432.00;;;;;;5075645;28;20012;-71
2023/09/23 04:20:14;;;;;;;19.58;8.75;;;589.70;2432.00;;;;;;5074295;28;20031;-72
2023/09/23 04:22:41;;;;;;;20.38;8.50;;;589.70;2432.00;;;;;;5072541;28;20122;-71
2023/09/23 04:25:08;;;;;;;23.23;7.75;;;614.50;2432.00;;;;;;5069059;28;20480;-72
2023/09/23 04:27:39;;;;;;;19.95;7.85;;;614.60;2432.00;;;;;;5078744;28;20028;-71
2023/09/23 04:30:11;;;;;;;23.35;7.40;;;614.50;2432.00;;;;;;5085084;28;20552;-72
2023/09/23 04:32:41;;;;;;;19.95;8.10;;;614.50;2432.00;;;;;;5063621;28;20115;-72
2023/09/23 04:35:12;;;;;;;21.00;7.20;;;589.70;2432.00;;;;;;5074967;28;20052;-71
2023/09/23 04:37:38;;;;;;;25.83;7.78;;;614.40;2432.00;;;;;;5076188;28;20036;-71
2023/09/23 04:40:10;;;;;;;22.65;7.95;;;614.40;2432.00;;;;;;5075323;28;20040;-73
2023/09/23 04:42:37;;;;;;;15.45;8.68;;;614.50;2432.00;;;;;;5072470;28;20498;-72
2023/09/23 04:45:03;;;;;;;16.02;7.07;;;614.60;2432.00;;;;;;5069084;28;20470;-72
2023/09/23 04:47:30;;;;;;;18.33;7.65;;;614.70;2432.00;;;;;;5075267;28;20028;-72
2023/09/23 04:49:58;;;;;;;17.17;8.32;;;614.60;2432.00;;;;;;5075891;28;20031;-73
2023/09/23 04:52:24;;;;;;;24.35;8.13;;;614.60;2432.00;;;;;;5071424;28;20032;-74
2023/09/23 04:54:53;;;;;;;18.00;8.18;;;614.70;2432.00;;;;;;5072936;28;20029;-74
2023/09/23 04:57:22;;;;;;;21.80;7.70;;;614.70;2432.00;;;;;;5072003;28;20106;-73
2023/09/23 04:59:48;;;;;;;18.10;7.82;;;614.50;2432.00;;;;;;5074195;28;20433;-79
2023/09/23 05:02:15;;;;;;;21.98;8.40;;;614.50;2432.00;;;;;;5071146;28;20033;-79
2023/09/23 05:04:41;;;;;;;27.88;9.32;;;614.60;2432.00;;;;;;5063819;28;20029;-79
2023/09/23 05:07:07;;;;;;;20.55;7.30;;;614.60;2432.00;;;;;;5072852;28;20081;-79
2023/09/23 05:09:34;;;;;;;24.08;9.25;;;614.60;2432.00;;;;;;5063688;28;20402;-77
2023/09/23 05:12:00;;;;;;;22.85;8.57;;;614.60;2432.00;;;;;;5073809;28;20048;-78
2023/09/23 05:14:26;;;;;;;24.95;7.95;;;614.40;2432.00;;;;;;5077240;28;20094;-78
2023/09/23 05:16:52;;;;;;;18.85;7.35;;;614.40;2432.00;;;;;;5075856;28;20490;-79
2023/09/23 05:19:22;;;;;;;15.50;6.97;;;614.40;2432.00;;;;;;5090082;28;20024;-77
2023/09/23 05:21:50;;;;;;;20.73;7.38;;;589.70;2432.00;;;;;;5071552;28;20457;-78
2023/09/23 05:24:16;;;;;;;18.83;7.97;;;589.70;2432.00;;;;;;5064259;28;20071;-78
2023/09/23 05:26:43;;;;;;;28.60;7.93;;;589.70;2432.00;;;;;;5069283;28;20133;-79
2023/09/23 05:29:09;;;;;;;22.10;7.70;;;614.40;2432.00;;;;;;5071369;28;20033;-81
2023/09/23 05:31:36;;;;;;;19.05;8.55;;;614.50;2432.00;;;;;;5074971;28;20053;-78
2023/09/23 05:34:03;;;;;;;18.00;7.45;;;614.50;2432.00;;;;;;5077016;28;20028;-77
2023/09/23 05:36:32;;;;;;;20.65;8.77;;;614.60;2432.00;;;;;;5060237;28;20040;-76
2023/09/23 05:38:59;;;;;;;22.63;9.35;;;614.60;2432.00;;;;;;5069516;28;20094;-75
2023/09/23 05:41:25;;;;;;;18.52;8.35;;;614.70;2432.00;;;;;;5072401;28;20107;-78
2023/09/23 05:43:52;;;;;;;15.90;7.28;;;614.80;2432.00;;;;;;5076030;28;20441;-78
2023/09/23 05:46:21;;;;;;;15.40;6.65;;;614.90;2432.00;;;;;;5069309;28;20021;-78
2023/09/23 05:48:49;;;;;;;16.83;7.60;;;615.00;2432.00;;;;;;5076682;28;20020;-77
2023/09/23 05:51:15;;;;;;;17.75;7.80;;;615.00;2432.00;;;;;;5072057;28;20054;-77
2023/09/23 05:53:42;;;;;;;18.95;7.65;;;615.00;2432.00;;;;;;5075763;28;20035;-77
2023/09/23 05:56:08;;;;;;;19.90;7.55;;;615.00;2432.00;;;;;;5073761;28;20098;-78
2023/09/23 05:58:34;;;;;;;24.55;8.80;;;615.10;2432.00;;;;;;5066948;28;20033;-77
2023/09/23 06:01:00;;;;;;;20.13;8.00;;;615.20;2432.00;;;;;;5072562;28;20027;-77
2023/09/23 06:03:26;;;;;;;18.50;8.40;;;615.20;2432.00;;;;;;5076311;28;20025;-77
2023/09/23 06:05:51;;;;;;;18.25;8.07;;;615.20;2432.00;;;;;;5068360;28;20477;-76
2023/09/23 06:08:17;;;;;;;17.23;7.95;;;615.20;2432.00;;;;;;5075777;28;20024;-77
2023/09/23 06:10:43;;;;;;;19.13;7.28;;;615.10;2432.00;;;;;;5084440;28;20527;-77
2023/09/23 06:13:12;;;;;;;18.65;7.47;;;615.10;2432.00;;;;;;5081278;28;20040;-78
2023/09/23 06:15:38;;;;;;;29.40;9.25;;;615.10;2432.00;;;;;;5072147;28;20016;-77
2023/09/23 06:18:06;;;;;;;29.60;8.68;;;615.10;2432.00;;;;;;5075576;28;20028;-76
2023/09/23 06:20:33;;;;;;;33.85;8.68;;;615.10;2432.00;;;;;;5068105;28;20036;-75
2023/09/23 06:22:59;;;;;;;19.42;8.35;;;615.20;2432.00;;;;;;5064880;28;20056;-76
2023/09/23 06:25:25;;;;;;;19.23;8.32;;;615.30;2432.00;;;;;;5077647;28;20028;-73
2023/09/23 06:27:50;;;;;;;16.98;7.45;;;640.10;2432.00;;;;;;5060548;28;20371;-73
2023/09/23 06:30:17;;;;;;;22.50;7.50;;;640.10;2432.00;;;;;;5062520;28;20051;-72
2023/09/23 06:32:44;;;;;;;23.33;9.23;;;640.20;2432.00;;;;;;5062131;28;20436;-73
2023/09/23 06:35:11;;;;;;;26.92;9.10;;;640.40;2432.00;;;;;;5069853;28;20027;-74
2023/09/23 06:37:37;;;;;;;27.55;8.70;;;640.70;2432.00;;;;;;5065771;28;20029;-74
2023/09/23 06:40:03;;;;;;;44.83;13.60;;;640.80;2432.00;;;;;;5080463;28;20056;-74
2023/09/23 06:42:29;;;;;;;24.10;8.02;;;665.80;2432.00;;;;;;5075462;28;20491;-78
2023/09/23 06:44:55;;;;;;;18.50;6.70;;;666.00;2432.00;;;;;;5069331;28;20025;-73
2023/09/23 06:47:21;;;;;;;22.73;7.22;;;666.20;2432.00;;;;;;5061130;28;20033;-74
2023/09/23 06:49:47;;;;;;;20.95;7.38;;;666.50;2432.00;;;;;;5057102;28;20025;-73
2023/09/23 06:52:12;;;;;;;26.45;8.40;;;691.20;2432.00;;;;;;5075358;28;20036;-73
2023/09/23 06:54:40;;;;;;;18.63;6.95;;;691.20;2432.00;;;;;;5060313;28;20033;-73
2023/09/23 06:57:05;;;;;;;29.42;8.20;;;691.20;2432.00;;;;;;5077461;28;20123;-73
2023/09/23 06:59:31;;;;;;;23.83;6.90;;;691.30;2432.00;;;;;;5072896;28;20048;-74
2023/09/23 07:01:57;;;;;;;32.80;8.68;;;691.40;2432.00;;;;;;5067019;28;20488;-73
2023/09/23 07:04:22;;;;;;;35.35;12.40;;;691.40;2432.00;;;;;;5062345;28;20078;-74
2023/09/23 07:06:48;;;;;;;24.77;8.80;;;691.60;2406.40;;;;;;5075179;28;20482;-74
2023/09/23 07:09:14;;;;;;;23.75;7.80;;;691.50;2406.40;;;;;;5076105;28;20024;-73
2023/09/23 07:11:40;;;;;;;17.20;6.78;;;691.50;2380.80;;;;;;5064032;28;20046;-73
2023/09/23 07:14:06;;;;;;;18.65;6.90;;;691.40;2380.80;;;;;;5059209;28;20059;-73
2023/09/23 07:16:35;;;;;;;25.02;7.35;;;691.40;2380.80;;;;;;5070762;28;20385;-73
2023/09/23 07:19:01;;;;;;;28.13;8.65;;;691.50;2406.40;;;;;;5063296;28;20111;-74
2023/09/23 07:21:27;;;;;;;24.95;7.82;;;691.60;2380.80;;;;;;5068748;28;20025;-72
2023/09/23 07:23:53;;;;;;;26.88;8.68;;;691.60;2432.00;;;;;;5076158;28;20036;-73
2023/09/23 07:26:22;;;;;;;21.50;6.97;;;691.50;2432.00;;;;;;5073691;28;20024;-73
2023/09/23 07:28:50;;;;;;;19.88;8.30;;;691.40;2432.00;;;;;;5067435;28;20059;-74
2023/09/23 07:31:17;;;;;;;19.85;6.88;;;691.30;2432.00;;;;;;5066978;28;20029;-72
2023/09/23 07:33:43;;;;;;;24.25;9.23;;;691.20;2432.00;;;;;;5067866;28;20020;-73
2023/09/23 07:36:13;;;;;;;23.65;8.90;;;691.40;2432.00;;;;;;5069788;28;20393;-74
2023/09/23 07:38:39;;;;;;;26.75;10.07;;;691.80;2432.00;;;;;;5070663;28;20440;-73
2023/09/23 07:41:08;;;;;;;22.13;8.18;;;692.10;2380.80;;;;;;5075923;28;20039;-73
2023/09/23 07:43:34;;;;;;;21.55;8.27;;;716.80;2406.40;;;;;;5069301;28;20056;-73
2023/09/23 07:46:00;;;;;;;18.27;7.13;;;717.10;2380.80;;;;;;5067272;28;20056;-73
2023/09/23 07:48:26;;;;;;;19.58;6.78;;;717.20;2355.20;;;;;;5060250;28;20021;-73
2023/09/23 07:50:54;;;;;;;24.23;7.32;;;717.50;2329.60;;;;;;5070739;28;20461;-74
2023/09/23 07:53:20;;;;;;;21.33;6.65;;;717.60;2329.60;;;;;;5076376;28;20028;-74
2023/09/23 07:55:46;;;;;;;23.38;8.25;;;742.40;2355.20;;;;;;5067895;28;20412;-74
2023/09/23 07:58:12;;;;;;;23.17;7.85;;;742.50;2380.80;;;;;;5068398;28;20039;-74
2023/09/23 08:00:38;;;;;;;23.13;7.88;;;742.60;2355.20;;;;;;5073324;28;20458;-73
2023/09/23 08:03:04;;;;;;;19.58;7.82;;;742.60;2355.20;;;;;;5075145;28;20036;-73
2023/09/23 08:05:29;;;;;;;19.38;7.50;;;742.60;2329.60;;;;;;5067191;28;20063;-72
2023/09/23 08:07:55;;;;;;;24.90;7.43;;;742.50;2355.20;;;;;;5067839;28;20112;-73
2023/09/23 08:10:21;;;;;;;25.48;8.13;;;742.60;2355.20;;;;;;5070614;28;20107;-71
2023/09/23 08:12:47;;;;;;;28.55;8.15;;;742.60;2329.60;;;;;;5068721;28;20048;-72
2023/09/23 08:15:13;;;;;;;27.52;8.25;;;742.60;2329.60;;;;;;5080226;28;20027;-72
2023/09/23 08:17:40;;;;;;;21.08;7.28;;;742.60;2355.20;;;;;;5066271;28;20075;-72
2023/09/23 08:20:17;;;;;;;20.58;7.05;;;742.50;2380.80;;;;;;5067052;28;20052;-72
2023/09/23 08:22:45;;;;;;;15.25;5.78;;;717.60;2406.40;;;;;;5062352;28;20047;-73
2023/09/23 08:25:12;;;;;;;16.15;5.28;;;717.50;2355.20;;;;;;5077708;28;20511;-72
2023/09/23 08:27:38;;;;;;;18.98;5.15;;;717.60;2329.60;;;;;;5071268;28;20033;-73
2023/09/23 08:30:05;;;;;;;13.93;4.15;;;717.70;2304.00;;;;;;5082964;28;20024;-73
2023/09/23 08:32:31;;;;;;;9.85;3.90;;;742.50;2304.00;;;;;;5067695;28;20032;-72
2023/09/23 08:34:56;;;;;;;9.07;3.85;;;742.50;2329.60;;;;;;5071227;28;20028;-72
2023/09/23 08:37:22;;;;;;;13.65;4.40;;;742.60;2252.80;;;;;;5076445;28;20434;-73
2023/09/23 08:39:48;;;;;;;12.13;3.95;;;742.90;2227.20;;;;;;5078493;28;20040;-73
2023/09/23 08:42:17;;;;;;;8.60;3.80;;;742.90;2201.60;;;;;;5076815;28;20024;-73
2023/09/23 08:44:43;;;;;;;12.15;4.95;;;743.00;2201.60;;;;;;5072005;28;20020;-72
2023/09/23 08:47:10;;;;;;;11.48;4.35;;;768.10;2176.00;;;;;;5067010;28;20087;-73
2023/09/23 08:49:37;;;;;;;14.70;4.57;;;768.00;2150.40;;;;;;5070953;28;20107;-73
2023/09/23 08:52:04;;;;;;;16.30;4.50;;;768.10;2150.40;;;;;;5070688;28;20116;-74
2023/09/23 08:54:31;;;;;;;15.50;4.90;;;768.40;2124.80;;;;;;5064754;28;20055;-73
2023/09/23 08:56:58;;;;;;;8.55;3.80;;;768.60;2099.20;;;;;;5065172;28;20132;-74
2023/09/23 08:59:26;;;;;;;16.70;6.05;;;768.50;2099.20;;;;;;5070722;28;20095;-74
2023/09/23 09:01:52;;;;;;;10.60;3.90;;;768.60;2073.60;;;;;;5079245;28;20035;-73
2023/09/23 09:04:18;;;;;;;11.32;6.05;;;768.70;2048.00;;;;;;5074344;28;20408;-73
2023/09/23 09:06:51;;;;;;;11.30;4.85;;;768.70;2048.00;;;;;;5066399;28;20032;-73
2023/09/23 09:09:17;;;;;;;14.43;4.40;;;768.70;2022.40;;;;;;5080990;28;20027;-75
2023/09/23 09:11:46;;;;;;;12.23;3.60;;;793.60;1996.80;;;;;;5075739;28;20498;-73
2023/09/23 09:14:12;;;;;;;14.35;4.82;;;793.80;1945.60;;;;;;5065755;28;20024;-74
2023/09/23 09:16:38;;;;;;;23.05;6.05;;;794.00;1945.60;;;;;;5073014;28;20040;-74
2023/09/23 09:19:05;;;;;;;12.50;4.20;;;794.00;1945.60;;;;;;5077354;28;20032;-74
2023/09/23 09:21:32;;;;;;;9.82;4.20;;;794.20;1920.00;;;;;;5059181;28;20018;-74
2023/09/23 09:24:01;;;;;;;8.65;3.80;;;794.30;1817.60;;;;;;5068418;28;20035;-74
2023/09/23 09:26:27;;;;;;;11.55;4.25;;;794.50;1843.20;;;;;;5062752;28;20036;-73
2023/09/23 09:28:53;;;;;;;8.82;3.30;;;819.30;1817.60;;;;;;5068601;28;20029;-73
2023/09/23 09:31:18;;;;;;;9.55;3.25;;;819.30;1817.60;;;;;;5066472;28;20047;-73
2023/09/23 09:33:48;;;;;;;9.02;3.65;;;819.50;1792.00;;;;;;5077337;28;20480;-73
2023/09/23 09:36:18;;;;;;;14.73;3.97;;;819.50;1792.00;;;;;;5069900;28;20031;-73
2023/09/23 09:38:49;;;;;;;9.18;2.88;;;819.70;1766.40;;;;;;5071561;28;20038;-73
2023/09/23 09:41:18;;;;;;;10.10;3.60;;;819.80;1715.20;;;;;;5069017;28;20068;-73
2023/09/23 09:43:45;;;;;;;16.33;4.38;;;819.80;1715.20;;;;;;5069329;28;20063;-73
2023/09/23 09:46:13;;;;;;;8.82;3.38;;;819.90;1740.80;;;;;;5076073;28;20460;-73
2023/09/23 09:48:42;;;;;;;10.18;3.08;;;820.10;1715.20;;;;;;5062049;28;20044;-75
2023/09/23 09:51:09;;;;;;;10.20;4.10;;;820.10;1664.00;;;;;;5075855;28;20047;-75
2023/09/23 09:53:39;;;;;;;8.48;2.80;;;844.90;1715.20;;;;;;5080850;28;20028;-76
2023/09/23 09:56:06;;;;;;;13.20;3.53;;;844.90;1689.60;;;;;;5063859;28;20029;-74
2023/09/23 09:58:38;;;;;;;14.05;3.90;;;844.90;1689.60;;;;;;5074134;28;20115;-74
2023/09/23 10:01:11;;;;;;;6.53;3.53;;;845.20;1715.20;;;;;;5072627;28;20039;-74
2023/09/23 10:03:38;;;;;;;8.95;3.42;;;845.30;1664.00;;;;;;5071759;28;20016;-74
2023/09/23 10:06:07;;;;;;;7.05;4.00;;;845.40;1612.80;;;;;;5070907;28;20107;-74
2023/09/23 10:08:38;;;;;;;15.48;3.28;;;845.50;1612.80;;;;;;5061763;28;20036;-74
2023/09/23 10:11:09;;;;;;;11.73;4.95;;;845.40;1612.80;;;;;;5073460;28;20135;-74
2023/09/23 10:13:35;;;;;;;8.63;3.40;;;845.60;1612.80;;;;;;5069760;28;20464;-75
2023/09/23 10:16:18;;;;;;;19.63;3.60;;;845.70;1612.80;;;;;;5061150;28;20059;-74
2023/09/23 10:18:55;;;;;;;9.73;2.97;;;845.70;1638.40;;;;;;5065116;28;20025;-74
2023/09/23 10:21:30;;;;;;;7.28;3.00;;;845.70;1561.60;;;;;;5072249;28;20477;-75
2023/09/23 10:23:57;;;;;;;14.13;2.90;;;870.60;1561.60;;;;;;5071168;28;20062;-75
2023/09/23 10:26:28;;;;;;;10.10;3.55;;;870.50;1536.00;;;;;;5069694;28;20488;-76
2023/09/23 10:29:05;;;;;;;12.70;3.08;;;845.70;1536.00;;;;;;5074354;28;20075;-75
2023/09/23 10:31:32;;;;;;;9.43;3.72;;;870.60;1536.00;;;;;;5064132;28;20033;-74
2023/09/23 10:34:04;;;;;;;11.07;3.15;;;870.70;1484.80;;;;;;5071144;28;20157;-75
2023/09/23 10:36:30;;;;;;;8.35;2.53;;;870.70;1510.40;;;;;;5066455;28;20029;-74
2023/09/23 10:38:56;;;;;;;10.50;2.67;;;870.60;1484.80;;;;;;5072911;28;20397;-74
2023/09/23 10:41:31;;;;;;;8.50;2.85;;;;;;;;;;5068110;28;20678;-78
2023/09/23 10:43:58;;;;;;;9.02;2.78;;;870.90;1433.60;;;;;;5064933;28;20051;-75
2023/09/23 10:46:24;;;;;;;5.30;2.70;;;871.00;1433.60;;;;;;5074971;28;20032;-75
2023/09/23 10:48:50;;;;;;;18.23;3.63;;;871.10;1433.60;;;;;;5076688;28;20496;-75
2023/09/23 10:51:16;;;;;;;12.57;3.70;;;871.00;1433.60;;;;;;5070386;28;20017;-74
2023/09/23 10:53:42;;;;;;;8.77;3.20;;;871.10;1433.60;;;;;;5058154;28;20109;-75
2023/09/23 10:56:10;;;;;;;18.52;3.92;;;871.10;1408.00;;;;;;5069120;28;20017;-75
2023/09/23 10:58:36;;;;;;;14.27;3.75;;;871.10;1408.00;;;;;;5074062;28;20492;-75
2023/09/23 11:01:04;;;;;;;20.85;4.60;;;870.70;1459.20;;;;;;5079515;28;20020;-74
2023/09/23 11:03:40;;;;;;;10.32;3.45;;;870.90;1433.60;;;;;;5074598;28;20021;-74
2023/09/23 11:06:08;;;;;;;;;;;871.10;1408.00;;;;;;5075664;28;20039;-75
2023/09/23 11:08:36;;;;;;;8.10;2.90;;;871.20;1408.00;;;;;;5080035;28;19983;-75
2023/09/23 11:11:02;;;;;;;10.07;3.88;;;871.30;1382.40;;;;;;5076657;28;20464;-75
2023/09/23 11:13:31;;;;;;;14.18;4.43;;;871.30;1408.00;;;;;;5069705;28;20033;-74
2023/09/23 11:15:57;;;;;;;12.38;4.82;;;871.30;1382.40;;;;;;5077023;28;20031;-73
2023/09/23 11:18:23;;;;;;;11.73;5.03;;;896.20;1382.40;;;;;;5072478;28;20024;-72
2023/09/23 11:20:49;;;;;;;17.75;5.88;;;896.20;1382.40;;;;;;5079680;28;20024;-72
2023/09/23 11:23:15;;;;;;;23.58;6.22;;;896.10;1331.20;;;;;;5070064;28;20032;-71
2023/09/23 11:25:46;;;;;;;12.75;4.90;;;871.10;1331.20;;;;;;5066047;28;20169;-72
2023/09/23 11:28:19;;;;;;;20.73;7.28;;;871.30;1331.20;;;;;;5073583;28;20465;-72
2023/09/23 11:30:49;;;;;;;23.13;7.38;;;871.20;1331.20;;;;;;5073363;28;20029;-72
2023/09/23 11:33:15;;;;;;;22.48;7.32;;;896.10;1305.60;;;;;;5073127;28;20115;-72
2023/09/23 11:35:44;;;;;;;19.33;7.82;;;896.00;1331.20;;;;;;5064060;28;20103;-72
2023/09/23 11:38:11;;;;;;;14.32;6.93;;;896.20;1305.60;;;;;;5071065;28;20469;-73
2023/09/23 11:40:37;;;;;;;15.45;7.22;;;;;;;;;;5075678;28;20052;-72
2023/09/23 11:43:04;;;;;;;15.93;6.32;;;;;;;;;;5066592;28;20390;-72
2023/09/23 11:45:30;;;;;;;24.52;6.97;;;896.90;1305.60;;;;;;5073913;28;20060;-72
2023/09/23 11:47:56;;;;;;;21.48;6.47;;;896.90;1305.60;;;;;;5073747;28;20103;-72
2023/09/23 11:50:23;;;;;;;19.85;6.90;;;896.80;1280.00;;;;;;5079382;28;20531;-73
2023/09/23 11:52:49;;;;;;;19.38;5.90;;;896.70;1305.60;;;;;;5078279;28;20040;-72
2023/09/23 11:55:16;;;;;;;12.55;6.07;;;896.70;1280.00;;;;;;5065434;28;20013;-73
2023/09/23 11:57:42;;;;;;;13.20;5.90;;;896.60;1280.00;;;;;;5074399;28;20078;-75
2023/09/23 12:00:15;;;;;;;20.05;6.20;;;896.70;1280.00;;;;;;5077267;28;20013;-74
2023/09/23 12:02:41;;;;;;;17.10;4.97;;;896.70;1280.00;;;;;;5079593;28;20032;-74
2023/09/23 12:05:14;;;;;;;18.27;4.95;;;896.50;1331.20;;;;;;5074163;28;20024;-74
2023/09/23 12:07:41;;;;;;;14.70;4.90;;;896.10;1356.80;;;;;;5083090;28;20036;-74
2023/09/23 12:10:07;;;;;;;16.50;5.32;;;896.10;1305.60;;;;;;5067230;28;20142;-74
2023/09/23 12:12:33;;;;;;;20.85;4.95;;;896.30;1331.20;;;;;;5076513;28;20044;-74
2023/09/23 12:14:59;;;;;;;16.92;5.30;;;896.70;1305.60;;;;;;5083752;28;20391;-74